sensor_id;sensor_type;location;lat;lon;timestamp;P1;durP1;ratioP1;P2;durP2;ratioP2
75059;SDS011;63640;59.264;18.116;2023-03-23T00:01:12;10.88;;;1.90;;
75059;SDS011;63640;59.264;18.116;2023-03-23T00:03:40;11.00;;;1.98;;
75059;SDS011;63640;59.264;18.116;2023-03-23T00:06:06;10.95;;;1.63;;
75059;SDS011;63640;59.264;18.116;2023-03-23T00:08:36;9.75;;;1.58;;
75059;SDS011;63640;59.264;18.116;2023-03-23T00:11:20;8.45;;;1.73;;
75059;SDS011;63640;59.264;18.116;2023-03-23T00:13:48;12.02;;;2.03;;
75059;SDS011;63640;59.264;18.116;2023-03-23T00:16:21;9.10;;;1.60;;
75059;SDS011;63640;59.264;18.116;2023-03-23T00:18:57;11.02;;;1.70;;
75059;SDS011;63640;59.264;18.116;2023-03-23T00:21:24;12.23;;;2.13;;
75059;SDS011;63640;59.264;18.116;2023-03-23T00:24:14;9.20;;;1.77;;
75059;SDS011;63640;59.264;18.116;2023-03-23T00:26:44;10.43;;;1.95;;
75059;SDS011;63640;59.264;18.116;2023-03-23T00:29:21;9.55;;;2.22;;
75059;SDS011;63640;59.264;18.116;2023-03-23T00:31:48;12.98;;;2.20;;
75059;SDS011;63640;59.264;18.116;2023-03-23T00:34:18;8.43;;;1.52;;
75059;SDS011;63640;59.264;18.116;2023-03-23T00:36:50;7.18;;;1.77;;
75059;SDS011;63640;59.264;18.116;2023-03-23T00:39:22;11.98;;;1.55;;
75059;SDS011;63640;59.264;18.116;2023-03-23T00:41:51;11.88;;;1.88;;
75059;SDS011;63640;59.264;18.116;2023-03-23T00:44:18;11.38;;;1.58;;
75059;SDS011;63640;59.264;18.116;2023-03-23T00:46:44;6.97;;;1.90;;
75059;SDS011;63640;59.264;18.116;2023-03-23T00:49:13;11.13;;;1.85;;
75059;SDS011;63640;59.264;18.116;2023-03-23T00:51:40;11.75;;;1.80;;
75059;SDS011;63640;59.264;18.116;2023-03-23T00:54:06;12.98;;;2.05;;
75059;SDS011;63640;59.264;18.116;2023-03-23T00:56:33;9.00;;;2.22;;
75059;SDS011;63640;59.264;18.116;2023-03-23T00:58:58;10.85;;;2.10;;
75059;SDS011;63640;59.264;18.116;2023-03-23T01:01:24;14.63;;;2.03;;
75059;SDS011;63640;59.264;18.116;2023-03-23T01:03:49;10.35;;;1.98;;
75059;SDS011;63640;59.264;18.116;2023-03-23T01:06:15;10.10;;;2.08;;
75059;SDS011;63640;59.264;18.116;2023-03-23T01:08:41;14.00;;;2.92;;
75059;SDS011;63640;59.264;18.116;2023-03-23T01:11:11;14.43;;;2.97;;
75059;SDS011;63640;59.264;18.116;2023-03-23T01:13:38;18.58;;;3.05;;
75059;SDS011;63640;59.264;18.116;2023-03-23T01:16:05;16.67;;;4.50;;
75059;SDS011;63640;59.264;18.116;2023-03-23T01:18:31;20.25;;;2.72;;
75059;SDS011;63640;59.264;18.116;2023-03-23T01:20:56;15.75;;;2.75;;
75059;SDS011;63640;59.264;18.116;2023-03-23T01:23:22;13.25;;;2.67;;
75059;SDS011;63640;59.264;18.116;2023-03-23T01:25:47;12.98;;;2.58;;
75059;SDS011;63640;59.264;18.116;2023-03-23T01:28:14;11.75;;;2.47;;
75059;SDS011;63640;59.264;18.116;2023-03-23T01:30:40;12.68;;;2.65;;
75059;SDS011;63640;59.264;18.116;2023-03-23T01:33:06;13.50;;;2.13;;
75059;SDS011;63640;59.264;18.116;2023-03-23T01:35:31;13.57;;;2.00;;
75059;SDS011;63640;59.264;18.116;2023-03-23T01:37:57;13.00;;;1.98;;
75059;SDS011;63640;59.264;18.116;2023-03-23T01:40:22;12.82;;;2.22;;
75059;SDS011;63640;59.264;18.116;2023-03-23T01:42:49;13.68;;;2.17;;
75059;SDS011;63640;59.264;18.116;2023-03-23T01:45:29;11.23;;;2.15;;
75059;SDS011;63640;59.264;18.116;2023-03-23T01:50:25;17.55;;;2.33;;
75059;SDS011;63640;59.264;18.116;2023-03-23T01:52:52;13.05;;;2.47;;
75059;SDS011;63640;59.264;18.116;2023-03-23T01:55:19;15.45;;;2.42;;
75059;SDS011;63640;59.264;18.116;2023-03-23T01:57:45;10.85;;;2.42;;
75059;SDS011;63640;59.264;18.116;2023-03-23T02:00:11;14.00;;;2.15;;
75059;SDS011;63640;59.264;18.116;2023-03-23T02:02:40;14.15;;;2.85;;
75059;SDS011;63640;59.264;18.116;2023-03-23T02:05:08;14.93;;;2.50;;
75059;SDS011;63640;59.264;18.116;2023-03-23T02:07:36;13.30;;;2.17;;
75059;SDS011;63640;59.264;18.116;2023-03-23T02:10:02;19.15;;;2.80;;
75059;SDS011;63640;59.264;18.116;2023-03-23T02:12:28;14.15;;;2.42;;
75059;SDS011;63640;59.264;18.116;2023-03-23T02:14:54;15.23;;;2.40;;
75059;SDS011;63640;59.264;18.116;2023-03-23T02:21:16;20.15;;;2.88;;
75059;SDS011;63640;59.264;18.116;2023-03-23T02:23:44;18.73;;;2.30;;
75059;SDS011;63640;59.264;18.116;2023-03-23T02:26:25;13.45;;;2.35;;
75059;SDS011;63640;59.264;18.116;2023-03-23T02:34:34;16.63;;;3.05;;
75059;SDS011;63640;59.264;18.116;2023-03-23T02:37:11;14.45;;;2.28;;
75059;SDS011;63640;59.264;18.116;2023-03-23T02:39:49;16.20;;;3.08;;
75059;SDS011;63640;59.264;18.116;2023-03-23T02:42:20;14.13;;;2.78;;
75059;SDS011;63640;59.264;18.116;2023-03-23T02:44:57;17.05;;;2.80;;
75059;SDS011;63640;59.264;18.116;2023-03-23T02:47:25;14.95;;;2.65;;
75059;SDS011;63640;59.264;18.116;2023-03-23T02:49:53;17.98;;;3.13;;
75059;SDS011;63640;59.264;18.116;2023-03-23T02:52:21;16.38;;;2.45;;
75059;SDS011;63640;59.264;18.116;2023-03-23T02:54:48;17.83;;;2.53;;
75059;SDS011;63640;59.264;18.116;2023-03-23T02:57:16;17.52;;;2.70;;
75059;SDS011;63640;59.264;18.116;2023-03-23T02:59:42;14.88;;;2.78;;
75059;SDS011;63640;59.264;18.116;2023-03-23T03:02:09;15.65;;;2.40;;
75059;SDS011;63640;59.264;18.116;2023-03-23T03:04:39;18.95;;;3.10;;
75059;SDS011;63640;59.264;18.116;2023-03-23T03:09:58;13.48;;;3.00;;
75059;SDS011;63640;59.264;18.116;2023-03-23T03:12:50;18.38;;;2.65;;
75059;SDS011;63640;59.264;18.116;2023-03-23T03:15:23;18.10;;;2.63;;
75059;SDS011;63640;59.264;18.116;2023-03-23T03:17:53;17.92;;;2.60;;
75059;SDS011;63640;59.264;18.116;2023-03-23T03:20:24;18.98;;;2.85;;
75059;SDS011;63640;59.264;18.116;2023-03-23T03:22:51;8.73;;;2.20;;
75059;SDS011;63640;59.264;18.116;2023-03-23T03:25:17;18.52;;;2.75;;
75059;SDS011;63640;59.264;18.116;2023-03-23T03:27:45;14.45;;;2.55;;
75059;SDS011;63640;59.264;18.116;2023-03-23T03:30:14;11.63;;;2.60;;
75059;SDS011;63640;59.264;18.116;2023-03-23T03:32:43;21.30;;;2.90;;
75059;SDS011;63640;59.264;18.116;2023-03-23T03:35:11;13.80;;;2.65;;
75059;SDS011;63640;59.264;18.116;2023-03-23T03:37:38;22.48;;;3.50;;
75059;SDS011;63640;59.264;18.116;2023-03-23T03:40:08;17.73;;;2.28;;
75059;SDS011;63640;59.264;18.116;2023-03-23T03:42:40;13.82;;;2.60;;
75059;SDS011;63640;59.264;18.116;2023-03-23T03:45:11;17.38;;;2.45;;
75059;SDS011;63640;59.264;18.116;2023-03-23T03:47:45;14.75;;;3.05;;
75059;SDS011;63640;59.264;18.116;2023-03-23T03:50:11;17.73;;;2.45;;
75059;SDS011;63640;59.264;18.116;2023-03-23T03:52:38;17.25;;;2.63;;
75059;SDS011;63640;59.264;18.116;2023-03-23T03:55:05;19.52;;;2.92;;
75059;SDS011;63640;59.264;18.116;2023-03-23T03:57:32;17.33;;;2.88;;
75059;SDS011;63640;59.264;18.116;2023-03-23T03:59:58;19.02;;;2.97;;
75059;SDS011;63640;59.264;18.116;2023-03-23T04:02:24;16.45;;;3.25;;
75059;SDS011;63640;59.264;18.116;2023-03-23T04:04:49;15.63;;;2.85;;
75059;SDS011;63640;59.264;18.116;2023-03-23T04:07:17;15.88;;;2.55;;
75059;SDS011;63640;59.264;18.116;2023-03-23T04:09:44;22.95;;;2.70;;
75059;SDS011;63640;59.264;18.116;2023-03-23T04:12:12;18.88;;;3.15;;
75059;SDS011;63640;59.264;18.116;2023-03-23T04:14:38;18.80;;;2.50;;
75059;SDS011;63640;59.264;18.116;2023-03-23T04:17:04;18.00;;;3.08;;
75059;SDS011;63640;59.264;18.116;2023-03-23T04:19:29;29.02;;;4.32;;
75059;SDS011;63640;59.264;18.116;2023-03-23T04:21:58;12.25;;;2.78;;
75059;SDS011;63640;59.264;18.116;2023-03-23T04:24:24;18.83;;;2.80;;
75059;SDS011;63640;59.264;18.116;2023-03-23T04:26:49;15.10;;;2.67;;
75059;SDS011;63640;59.264;18.116;2023-03-23T04:29:17;13.68;;;3.03;;
75059;SDS011;63640;59.264;18.116;2023-03-23T04:31:44;13.77;;;2.33;;
75059;SDS011;63640;59.264;18.116;2023-03-23T04:34:10;17.75;;;3.25;;
75059;SDS011;63640;59.264;18.116;2023-03-23T04:36:39;24.10;;;3.03;;
75059;SDS011;63640;59.264;18.116;2023-03-23T04:39:06;17.15;;;3.15;;
75059;SDS011;63640;59.264;18.116;2023-03-23T04:41:35;16.15;;;2.75;;
75059;SDS011;63640;59.264;18.116;2023-03-23T04:44:03;19.35;;;4.10;;
75059;SDS011;63640;59.264;18.116;2023-03-23T04:46:29;15.93;;;2.80;;
75059;SDS011;63640;59.264;18.116;2023-03-23T04:48:55;17.63;;;2.90;;
75059;SDS011;63640;59.264;18.116;2023-03-23T04:51:23;15.23;;;2.65;;
75059;SDS011;63640;59.264;18.116;2023-03-23T04:53:51;24.17;;;3.90;;
75059;SDS011;63640;59.264;18.116;2023-03-23T04:56:17;23.45;;;2.92;;
75059;SDS011;63640;59.264;18.116;2023-03-23T04:58:43;24.58;;;3.65;;
75059;SDS011;63640;59.264;18.116;2023-03-23T05:01:10;17.58;;;2.63;;
75059;SDS011;63640;59.264;18.116;2023-03-23T05:03:39;13.57;;;3.70;;
75059;SDS011;63640;59.264;18.116;2023-03-23T05:06:05;20.70;;;3.38;;
75059;SDS011;63640;59.264;18.116;2023-03-23T05:08:31;18.73;;;3.53;;
75059;SDS011;63640;59.264;18.116;2023-03-23T05:11:00;16.48;;;2.83;;
75059;SDS011;63640;59.264;18.116;2023-03-23T05:13:27;17.65;;;3.45;;
75059;SDS011;63640;59.264;18.116;2023-03-23T05:15:53;16.08;;;3.28;;
75059;SDS011;63640;59.264;18.116;2023-03-23T05:18:19;17.65;;;2.92;;
75059;SDS011;63640;59.264;18.116;2023-03-23T05:20:45;18.58;;;3.85;;
75059;SDS011;63640;59.264;18.116;2023-03-23T05:23:11;16.33;;;2.75;;
75059;SDS011;63640;59.264;18.116;2023-03-23T05:25:37;20.23;;;3.97;;
75059;SDS011;63640;59.264;18.116;2023-03-23T05:28:08;20.60;;;2.75;;
75059;SDS011;63640;59.264;18.116;2023-03-23T05:30:37;18.95;;;3.00;;
75059;SDS011;63640;59.264;18.116;2023-03-23T05:33:03;19.48;;;3.03;;
75059;SDS011;63640;59.264;18.116;2023-03-23T05:35:29;19.63;;;3.40;;
75059;SDS011;63640;59.264;18.116;2023-03-23T05:37:55;17.88;;;3.10;;
75059;SDS011;63640;59.264;18.116;2023-03-23T05:40:22;22.95;;;3.75;;
75059;SDS011;63640;59.264;18.116;2023-03-23T05:42:50;13.18;;;2.72;;
75059;SDS011;63640;59.264;18.116;2023-03-23T05:45:16;20.00;;;3.35;;
75059;SDS011;63640;59.264;18.116;2023-03-23T05:47:43;22.60;;;4.80;;
75059;SDS011;63640;59.264;18.116;2023-03-23T05:50:08;24.35;;;3.38;;
75059;SDS011;63640;59.264;18.116;2023-03-23T05:52:35;19.08;;;2.53;;
75059;SDS011;63640;59.264;18.116;2023-03-23T05:55:02;16.33;;;3.22;;
75059;SDS011;63640;59.264;18.116;2023-03-23T05:57:28;16.60;;;2.85;;
75059;SDS011;63640;59.264;18.116;2023-03-23T05:59:54;19.05;;;3.28;;
75059;SDS011;63640;59.264;18.116;2023-03-23T06:02:21;20.92;;;3.78;;
75059;SDS011;63640;59.264;18.116;2023-03-23T06:04:48;12.90;;;3.00;;
75059;SDS011;63640;59.264;18.116;2023-03-23T06:07:14;20.38;;;3.63;;
75059;SDS011;63640;59.264;18.116;2023-03-23T06:09:40;12.48;;;2.72;;
75059;SDS011;63640;59.264;18.116;2023-03-23T06:12:06;13.88;;;2.88;;
75059;SDS011;63640;59.264;18.116;2023-03-23T06:14:32;18.30;;;3.03;;
75059;SDS011;63640;59.264;18.116;2023-03-23T06:16:58;15.32;;;2.75;;
75059;SDS011;63640;59.264;18.116;2023-03-23T06:19:24;15.38;;;2.30;;
75059;SDS011;63640;59.264;18.116;2023-03-23T06:21:51;13.70;;;3.08;;
75059;SDS011;63640;59.264;18.116;2023-03-23T06:24:19;15.07;;;2.90;;
75059;SDS011;63640;59.264;18.116;2023-03-23T06:26:45;12.43;;;2.30;;
75059;SDS011;63640;59.264;18.116;2023-03-23T06:29:10;11.20;;;2.22;;
75059;SDS011;63640;59.264;18.116;2023-03-23T06:31:43;16.33;;;2.55;;
75059;SDS011;63640;59.264;18.116;2023-03-23T06:34:10;14.18;;;2.35;;
75059;SDS011;63640;59.264;18.116;2023-03-23T06:36:36;14.25;;;2.88;;
75059;SDS011;63640;59.264;18.116;2023-03-23T06:39:03;18.15;;;3.22;;
75059;SDS011;63640;59.264;18.116;2023-03-23T06:41:33;13.38;;;3.17;;
75059;SDS011;63640;59.264;18.116;2023-03-23T06:43:59;14.07;;;2.63;;
75059;SDS011;63640;59.264;18.116;2023-03-23T06:46:25;16.88;;;2.95;;
75059;SDS011;63640;59.264;18.116;2023-03-23T06:48:51;9.55;;;2.67;;
75059;SDS011;63640;59.264;18.116;2023-03-23T06:51:17;15.02;;;3.25;;
75059;SDS011;63640;59.264;18.116;2023-03-23T06:53:43;13.13;;;2.65;;
75059;SDS011;63640;59.264;18.116;2023-03-23T06:56:08;16.30;;;3.33;;
75059;SDS011;63640;59.264;18.116;2023-03-23T06:58:34;13.68;;;2.70;;
75059;SDS011;63640;59.264;18.116;2023-03-23T07:01:00;14.88;;;2.85;;
75059;SDS011;63640;59.264;18.116;2023-03-23T07:03:26;11.68;;;2.65;;
75059;SDS011;63640;59.264;18.116;2023-03-23T07:05:53;13.70;;;3.13;;
75059;SDS011;63640;59.264;18.116;2023-03-23T07:08:19;13.32;;;3.08;;
75059;SDS011;63640;59.264;18.116;2023-03-23T07:10:45;15.30;;;3.60;;
75059;SDS011;63640;59.264;18.116;2023-03-23T07:13:11;20.83;;;3.33;;
75059;SDS011;63640;59.264;18.116;2023-03-23T07:15:37;16.00;;;2.88;;
75059;SDS011;63640;59.264;18.116;2023-03-23T07:18:04;13.55;;;3.35;;
75059;SDS011;63640;59.264;18.116;2023-03-23T07:20:29;14.77;;;2.55;;
75059;SDS011;63640;59.264;18.116;2023-03-23T07:22:55;14.05;;;2.97;;
75059;SDS011;63640;59.264;18.116;2023-03-23T07:25:20;14.18;;;3.33;;
75059;SDS011;63640;59.264;18.116;2023-03-23T07:27:46;14.55;;;3.13;;
75059;SDS011;63640;59.264;18.116;2023-03-23T07:30:12;14.25;;;2.88;;
75059;SDS011;63640;59.264;18.116;2023-03-23T07:32:39;17.27;;;3.20;;
75059;SDS011;63640;59.264;18.116;2023-03-23T07:35:05;12.10;;;2.65;;
75059;SDS011;63640;59.264;18.116;2023-03-23T07:37:31;15.43;;;3.50;;
75059;SDS011;63640;59.264;18.116;2023-03-23T07:39:57;11.32;;;2.85;;
75059;SDS011;63640;59.264;18.116;2023-03-23T07:42:23;14.48;;;3.03;;
75059;SDS011;63640;59.264;18.116;2023-03-23T07:44:48;12.23;;;3.00;;
75059;SDS011;63640;59.264;18.116;2023-03-23T07:47:14;10.85;;;2.40;;
75059;SDS011;63640;59.264;18.116;2023-03-23T07:49:40;11.05;;;2.72;;
75059;SDS011;63640;59.264;18.116;2023-03-23T07:52:05;11.43;;;2.78;;
75059;SDS011;63640;59.264;18.116;2023-03-23T07:54:31;13.73;;;3.25;;
75059;SDS011;63640;59.264;18.116;2023-03-23T07:56:56;12.20;;;2.40;;
75059;SDS011;63640;59.264;18.116;2023-03-23T07:59:25;13.73;;;3.13;;
75059;SDS011;63640;59.264;18.116;2023-03-23T08:01:51;14.52;;;3.25;;
75059;SDS011;63640;59.264;18.116;2023-03-23T08:04:16;17.80;;;3.70;;
75059;SDS011;63640;59.264;18.116;2023-03-23T08:06:42;13.98;;;2.83;;
75059;SDS011;63640;59.264;18.116;2023-03-23T08:09:08;14.73;;;2.70;;
75059;SDS011;63640;59.264;18.116;2023-03-23T08:11:37;11.98;;;3.22;;
75059;SDS011;63640;59.264;18.116;2023-03-23T08:14:03;13.52;;;2.92;;
75059;SDS011;63640;59.264;18.116;2023-03-23T08:16:30;12.43;;;3.20;;
75059;SDS011;63640;59.264;18.116;2023-03-23T08:18:56;14.98;;;3.33;;
75059;SDS011;63640;59.264;18.116;2023-03-23T08:21:22;13.05;;;2.90;;
75059;SDS011;63640;59.264;18.116;2023-03-23T08:23:47;11.88;;;3.00;;
75059;SDS011;63640;59.264;18.116;2023-03-23T08:26:13;13.82;;;3.10;;
75059;SDS011;63640;59.264;18.116;2023-03-23T08:28:40;10.20;;;2.80;;
75059;SDS011;63640;59.264;18.116;2023-03-23T08:31:07;12.88;;;3.03;;
75059;SDS011;63640;59.264;18.116;2023-03-23T08:33:33;15.13;;;2.92;;
75059;SDS011;63640;59.264;18.116;2023-03-23T08:35:59;13.95;;;2.83;;
75059;SDS011;63640;59.264;18.116;2023-03-23T08:38:26;14.57;;;3.65;;
75059;SDS011;63640;59.264;18.116;2023-03-23T08:40:56;15.02;;;2.90;;
75059;SDS011;63640;59.264;18.116;2023-03-23T08:43:25;12.77;;;2.72;;
75059;SDS011;63640;59.264;18.116;2023-03-23T08:45:52;14.88;;;3.08;;
75059;SDS011;63640;59.264;18.116;2023-03-23T08:48:18;15.82;;;2.80;;
75059;SDS011;63640;59.264;18.116;2023-03-23T08:50:44;16.02;;;2.97;;
75059;SDS011;63640;59.264;18.116;2023-03-23T08:53:10;9.95;;;2.58;;
75059;SDS011;63640;59.264;18.116;2023-03-23T08:55:36;15.93;;;2.85;;
75059;SDS011;63640;59.264;18.116;2023-03-23T08:58:03;11.70;;;2.85;;
75059;SDS011;63640;59.264;18.116;2023-03-23T09:00:29;11.02;;;2.53;;
75059;SDS011;63640;59.264;18.116;2023-03-23T09:02:55;11.48;;;2.80;;
75059;SDS011;63640;59.264;18.116;2023-03-23T09:05:22;14.85;;;2.95;;
75059;SDS011;63640;59.264;18.116;2023-03-23T09:07:51;11.00;;;2.58;;
75059;SDS011;63640;59.264;18.116;2023-03-23T09:10:18;14.40;;;3.10;;
75059;SDS011;63640;59.264;18.116;2023-03-23T09:12:44;10.57;;;2.50;;
75059;SDS011;63640;59.264;18.116;2023-03-23T09:15:11;12.55;;;2.88;;
75059;SDS011;63640;59.264;18.116;2023-03-23T09:17:41;17.52;;;4.00;;
75059;SDS011;63640;59.264;18.116;2023-03-23T09:20:11;12.15;;;2.78;;
75059;SDS011;63640;59.264;18.116;2023-03-23T09:22:46;12.95;;;2.83;;
75059;SDS011;63640;59.264;18.116;2023-03-23T09:25:14;9.98;;;2.83;;
75059;SDS011;63640;59.264;18.116;2023-03-23T09:27:41;10.32;;;2.58;;
75059;SDS011;63640;59.264;18.116;2023-03-23T09:30:11;11.10;;;2.72;;
75059;SDS011;63640;59.264;18.116;2023-03-23T09:32:38;12.40;;;2.60;;
75059;SDS011;63640;59.264;18.116;2023-03-23T09:35:05;13.63;;;2.60;;
75059;SDS011;63640;59.264;18.116;2023-03-23T09:37:36;9.98;;;2.22;;
75059;SDS011;63640;59.264;18.116;2023-03-23T09:40:03;12.13;;;2.80;;
75059;SDS011;63640;59.264;18.116;2023-03-23T09:42:36;12.68;;;3.00;;
75059;SDS011;63640;59.264;18.116;2023-03-23T09:51:28;14.55;;;3.00;;
75059;SDS011;63640;59.264;18.116;2023-03-23T09:54:46;10.27;;;2.83;;
75059;SDS011;63640;59.264;18.116;2023-03-23T09:57:01;13.88;;;2.90;;
75059;SDS011;63640;59.264;18.116;2023-03-23T09:59:36;15.50;;;2.80;;
75059;SDS011;63640;59.264;18.116;2023-03-23T10:02:18;11.70;;;2.50;;
75059;SDS011;63640;59.264;18.116;2023-03-23T10:04:47;16.98;;;3.00;;
75059;SDS011;63640;59.264;18.116;2023-03-23T10:07:23;10.77;;;2.50;;
75059;SDS011;63640;59.264;18.116;2023-03-23T10:15:28;15.05;;;2.58;;
75059;SDS011;63640;59.264;18.116;2023-03-23T10:18:04;12.10;;;2.53;;
75059;SDS011;63640;59.264;18.116;2023-03-23T10:20:47;12.20;;;3.25;;
75059;SDS011;63640;59.264;18.116;2023-03-23T10:29:17;13.20;;;3.10;;
75059;SDS011;63640;59.264;18.116;2023-03-23T10:40:03;17.42;;;3.25;;
75059;SDS011;63640;59.264;18.116;2023-03-23T10:42:32;14.07;;;2.60;;
75059;SDS011;63640;59.264;18.116;2023-03-23T10:45:00;13.48;;;2.50;;
75059;SDS011;63640;59.264;18.116;2023-03-23T10:47:26;11.80;;;2.20;;
75059;SDS011;63640;59.264;18.116;2023-03-23T10:49:58;12.60;;;3.00;;
75059;SDS011;63640;59.264;18.116;2023-03-23T10:54:54;18.48;;;2.90;;
75059;SDS011;63640;59.264;18.116;2023-03-23T10:57:26;15.52;;;3.22;;
75059;SDS011;63640;59.264;18.116;2023-03-23T11:02:41;14.65;;;3.13;;
75059;SDS011;63640;59.264;18.116;2023-03-23T11:05:21;11.68;;;2.22;;
75059;SDS011;63640;59.264;18.116;2023-03-23T11:07:56;16.98;;;2.78;;
75059;SDS011;63640;59.264;18.116;2023-03-23T11:12:49;12.48;;;2.60;;
75059;SDS011;63640;59.264;18.116;2023-03-23T11:17:56;11.60;;;2.42;;
75059;SDS011;63640;59.264;18.116;2023-03-23T11:20:27;11.57;;;2.35;;
75059;SDS011;63640;59.264;18.116;2023-03-23T11:22:54;12.43;;;2.20;;
75059;SDS011;63640;59.264;18.116;2023-03-23T11:25:21;10.88;;;2.30;;
75059;SDS011;63640;59.264;18.116;2023-03-23T11:27:46;22.52;;;3.17;;
75059;SDS011;63640;59.264;18.116;2023-03-23T11:30:25;18.80;;;3.15;;
75059;SDS011;63640;59.264;18.116;2023-03-23T11:32:52;12.00;;;2.38;;
75059;SDS011;63640;59.264;18.116;2023-03-23T11:35:20;14.90;;;2.58;;
75059;SDS011;63640;59.264;18.116;2023-03-23T11:37:52;10.55;;;2.33;;
75059;SDS011;63640;59.264;18.116;2023-03-23T11:40:24;12.45;;;2.40;;
75059;SDS011;63640;59.264;18.116;2023-03-23T11:47:53;12.52;;;2.53;;
75059;SDS011;63640;59.264;18.116;2023-03-23T11:50:26;13.15;;;2.50;;
75059;SDS011;63640;59.264;18.116;2023-03-23T11:55:51;9.10;;;2.33;;
75059;SDS011;63640;59.264;18.116;2023-03-23T11:58:20;15.68;;;2.75;;
75059;SDS011;63640;59.264;18.116;2023-03-23T12:06:34;10.75;;;2.13;;
75059;SDS011;63640;59.264;18.116;2023-03-23T12:09:10;12.73;;;2.15;;
75059;SDS011;63640;59.264;18.116;2023-03-23T12:17:31;9.88;;;2.53;;
75059;SDS011;63640;59.264;18.116;2023-03-23T12:25:48;16.55;;;2.60;;
75059;SDS011;63640;59.264;18.116;2023-03-23T12:46:03;13.48;;;2.67;;
75059;SDS011;63640;59.264;18.116;2023-03-23T12:48:12;16.02;;;2.30;;
75059;SDS011;63640;59.264;18.116;2023-03-23T12:51:03;13.32;;;2.33;;
75059;SDS011;63640;59.264;18.116;2023-03-23T12:53:49;10.18;;;2.22;;
75059;SDS011;63640;59.264;18.116;2023-03-23T12:59:45;9.70;;;2.28;;
75059;SDS011;63640;59.264;18.116;2023-03-23T13:02:31;12.25;;;2.45;;
75059;SDS011;63640;59.264;18.116;2023-03-23T13:05:03;9.05;;;2.25;;
75059;SDS011;63640;59.264;18.116;2023-03-23T13:07:35;9.85;;;1.92;;
75059;SDS011;63640;59.264;18.116;2023-03-23T13:10:12;21.80;;;2.47;;
75059;SDS011;63640;59.264;18.116;2023-03-23T13:12:44;13.70;;;2.22;;
75059;SDS011;63640;59.264;18.116;2023-03-23T13:18:02;10.70;;;2.45;;
75059;SDS011;63640;59.264;18.116;2023-03-23T13:20:32;12.13;;;2.13;;
75059;SDS011;63640;59.264;18.116;2023-03-23T13:23:02;11.32;;;2.17;;
75059;SDS011;63640;59.264;18.116;2023-03-23T13:28:01;9.38;;;1.98;;
75059;SDS011;63640;59.264;18.116;2023-03-23T13:30:28;10.55;;;1.88;;
75059;SDS011;63640;59.264;18.116;2023-03-23T13:33:04;10.63;;;2.08;;
75059;SDS011;63640;59.264;18.116;2023-03-23T13:35:37;12.00;;;2.47;;
75059;SDS011;63640;59.264;18.116;2023-03-23T13:38:18;11.30;;;2.92;;
75059;SDS011;63640;59.264;18.116;2023-03-23T13:40:46;12.57;;;2.22;;
75059;SDS011;63640;59.264;18.116;2023-03-23T13:43:12;8.68;;;1.92;;
75059;SDS011;63640;59.264;18.116;2023-03-23T13:45:45;11.48;;;1.90;;
75059;SDS011;63640;59.264;18.116;2023-03-23T13:50:44;10.10;;;1.92;;
75059;SDS011;63640;59.264;18.116;2023-03-23T13:53:22;11.18;;;2.45;;
75059;SDS011;63640;59.264;18.116;2023-03-23T13:55:51;12.15;;;2.25;;
75059;SDS011;63640;59.264;18.116;2023-03-23T13:58:28;10.55;;;2.63;;
75059;SDS011;63640;59.264;18.116;2023-03-23T14:01:02;9.00;;;1.98;;
75059;SDS011;63640;59.264;18.116;2023-03-23T14:03:40;8.98;;;1.90;;
75059;SDS011;63640;59.264;18.116;2023-03-23T14:06:07;13.93;;;2.58;;
75059;SDS011;63640;59.264;18.116;2023-03-23T14:08:39;10.43;;;2.25;;
75059;SDS011;63640;59.264;18.116;2023-03-23T14:11:11;10.20;;;1.90;;
75059;SDS011;63640;59.264;18.116;2023-03-23T14:18:40;11.07;;;1.83;;
75059;SDS011;63640;59.264;18.116;2023-03-23T14:21:13;8.55;;;1.90;;
75059;SDS011;63640;59.264;18.116;2023-03-23T14:23:40;8.73;;;2.13;;
75059;SDS011;63640;59.264;18.116;2023-03-23T14:26:10;12.23;;;2.17;;
75059;SDS011;63640;59.264;18.116;2023-03-23T14:28:40;15.35;;;2.53;;
75059;SDS011;63640;59.264;18.116;2023-03-23T14:31:40;8.57;;;2.22;;
75059;SDS011;63640;59.264;18.116;2023-03-23T14:34:02;9.57;;;1.77;;
75059;SDS011;63640;59.264;18.116;2023-03-23T14:36:29;9.98;;;2.15;;
75059;SDS011;63640;59.264;18.116;2023-03-23T14:39:44;9.88;;;2.13;;
75059;SDS011;63640;59.264;18.116;2023-03-23T14:41:41;10.40;;;2.28;;
75059;SDS011;63640;59.264;18.116;2023-03-23T14:44:12;8.07;;;1.80;;
75059;SDS011;63640;59.264;18.116;2023-03-23T14:46:41;14.07;;;2.00;;
75059;SDS011;63640;59.264;18.116;2023-03-23T14:49:07;9.65;;;2.17;;
75059;SDS011;63640;59.264;18.116;2023-03-23T14:51:36;11.35;;;2.00;;
75059;SDS011;63640;59.264;18.116;2023-03-23T14:54:07;6.82;;;1.70;;
75059;SDS011;63640;59.264;18.116;2023-03-23T14:56:34;13.02;;;1.98;;
75059;SDS011;63640;59.264;18.116;2023-03-23T14:59:04;7.72;;;1.80;;
75059;SDS011;63640;59.264;18.116;2023-03-23T15:01:31;10.65;;;1.75;;
75059;SDS011;63640;59.264;18.116;2023-03-23T15:06:31;5.03;;;1.70;;
75059;SDS011;63640;59.264;18.116;2023-03-23T15:08:59;12.20;;;2.30;;
75059;SDS011;63640;59.264;18.116;2023-03-23T15:11:30;8.73;;;1.73;;
75059;SDS011;63640;59.264;18.116;2023-03-23T15:13:59;8.82;;;2.00;;
75059;SDS011;63640;59.264;18.116;2023-03-23T15:16:32;10.27;;;2.08;;
75059;SDS011;63640;59.264;18.116;2023-03-23T15:19:31;10.35;;;1.98;;
75059;SDS011;63640;59.264;18.116;2023-03-23T15:26:53;11.63;;;1.88;;
75059;SDS011;63640;59.264;18.116;2023-03-23T15:29:20;6.85;;;1.80;;
75059;SDS011;63640;59.264;18.116;2023-03-23T15:31:52;8.10;;;1.60;;
75059;SDS011;63640;59.264;18.116;2023-03-23T15:34:41;5.75;;;1.45;;
75059;SDS011;63640;59.264;18.116;2023-03-23T15:37:29;6.78;;;1.50;;
75059;SDS011;63640;59.264;18.116;2023-03-23T15:39:54;5.55;;;1.48;;
75059;SDS011;63640;59.264;18.116;2023-03-23T15:42:28;15.55;;;1.88;;
75059;SDS011;63640;59.264;18.116;2023-03-23T15:45:37;10.85;;;2.03;;
75059;SDS011;63640;59.264;18.116;2023-03-23T15:47:52;8.13;;;1.77;;
75059;SDS011;63640;59.264;18.116;2023-03-23T15:50:20;11.18;;;2.10;;
75059;SDS011;63640;59.264;18.116;2023-03-23T15:52:46;11.70;;;1.73;;
75059;SDS011;63640;59.264;18.116;2023-03-23T15:57:52;10.77;;;2.20;;
75059;SDS011;63640;59.264;18.116;2023-03-23T16:00:19;7.55;;;1.50;;
75059;SDS011;63640;59.264;18.116;2023-03-23T16:02:46;6.22;;;1.60;;
75059;SDS011;63640;59.264;18.116;2023-03-23T16:05:15;7.90;;;1.90;;
75059;SDS011;63640;59.264;18.116;2023-03-23T16:07:41;9.32;;;1.50;;
75059;SDS011;63640;59.264;18.116;2023-03-23T16:10:06;8.20;;;1.65;;
75059;SDS011;63640;59.264;18.116;2023-03-23T16:12:40;7.25;;;1.95;;
75059;SDS011;63640;59.264;18.116;2023-03-23T16:15:05;9.73;;;1.75;;
75059;SDS011;63640;59.264;18.116;2023-03-23T16:17:33;8.30;;;1.60;;
75059;SDS011;63640;59.264;18.116;2023-03-23T16:19:59;10.27;;;1.83;;
75059;SDS011;63640;59.264;18.116;2023-03-23T16:22:24;8.88;;;1.60;;
75059;SDS011;63640;59.264;18.116;2023-03-23T16:24:50;8.73;;;1.30;;
75059;SDS011;63640;59.264;18.116;2023-03-23T16:27:15;10.32;;;2.05;;
75059;SDS011;63640;59.264;18.116;2023-03-23T16:29:41;12.82;;;1.70;;
75059;SDS011;63640;59.264;18.116;2023-03-23T16:32:07;11.18;;;1.80;;
75059;SDS011;63640;59.264;18.116;2023-03-23T16:34:33;11.13;;;2.03;;